Time;durP1;ratioP1;P1;durP2;ratioP2;P2;SDS_P1;SDS_P2;PMS_P1;PMS_P2;Temp;Humidity;BMP_temperature;BMP_pressure;BME280_temperature;BME280_humidity;BME280_pressure;Samples;Min_cycle;Max_cycle;Signal;HPM_P1;HPM_P2
2023/12/15 00:02:04;;;;;;;11.60;5.90;;;;;;;-0.37;99.32;100624.03;4191290;28;20300;-74
2023/12/15 00:04:31;;;;;;;9.17;4.83;;;;;;;-0.35;98.26;100624.84;4179334;28;21214;-71
2023/12/15 00:06:57;;;;;;;13.43;5.90;;;;;;;-0.30;97.68;100631.72;4188941;28;20351;-70
2023/12/15 00:09:25;;;;;;;10.33;5.27;;;;;;;-0.46;97.45;100634.25;4204290;28;20234;-74
2023/12/15 00:11:52;;;;;;;11.97;5.73;;;;;;;-0.55;97.72;100646.16;4195557;28;20235;-72
2023/12/15 00:14:18;;;;;;;13.77;5.87;;;;;;;-0.53;98.20;100654.94;4191029;28;21005;-72
2023/12/15 00:16:45;;;;;;;11.97;5.63;;;;;;;-0.43;98.48;100652.69;4191590;28;21741;-73
2023/12/15 00:19:12;;;;;;;11.30;5.70;;;;;;;-0.47;98.67;100656.47;4187154;28;20524;-75
2023/12/15 00:21:39;;;;;;;15.03;6.17;;;;;;;-0.44;98.61;100661.63;4186809;28;20609;-71
2023/12/15 00:24:08;;;;;;;12.27;5.67;;;;;;;-0.39;98.91;100657.81;4188783;28;20307;-75
2023/12/15 00:26:36;;;;;;;14.83;6.50;;;;;;;-0.46;99.36;100669.66;4206982;28;20249;-76
2023/12/15 00:29:03;;;;;;;15.27;6.47;;;;;;;-0.46;99.73;100675.00;4179806;28;21453;-76
2023/12/15 00:31:30;;;;;;;15.67;6.50;;;;;;;-0.53;100.00;100679.72;4181450;28;20321;-74
2023/12/15 00:33:58;;;;;;;14.73;6.93;;;;;;;-0.44;100.00;100691.75;4188767;28;20256;-72
2023/12/15 00:36:24;;;;;;;17.70;7.37;;;;;;;-0.54;100.00;100688.66;4187771;28;20313;-76
2023/12/15 00:38:51;;;;;;;14.67;6.97;;;;;;;-0.44;100.00;100680.22;4197174;28;20265;-73
2023/12/15 00:41:18;;;;;;;15.87;6.73;;;;;;;-0.47;100.00;100688.38;4179121;28;20353;-72
2023/12/15 00:43:45;;;;;;;14.23;7.50;;;;;;;-0.55;100.00;100689.59;4174020;28;20311;-76
2023/12/15 00:46:11;;;;;;;13.33;6.67;;;;;;;-0.52;100.00;100692.09;4189968;28;20312;-73
2023/12/15 00:48:38;;;;;;;16.07;6.77;;;;;;;-0.64;100.00;100696.16;4179686;28;21864;-73
2023/12/15 00:51:05;;;;;;;16.47;7.53;;;;;;;-0.66;100.00;100703.38;4175878;28;20868;-74
2023/12/15 00:53:32;;;;;;;18.90;8.17;;;;;;;-0.63;100.00;100713.00;4185222;28;21472;-76
2023/12/15 00:56:00;;;;;;;17.50;7.97;;;;;;;-0.64;100.00;100708.59;4183242;28;25435;-71
2023/12/15 00:58:27;;;;;;;18.30;8.80;;;;;;;-0.76;100.00;100717.13;4185790;28;22664;-75
2023/12/15 01:00:54;;;;;;;19.27;8.27;;;;;;;-0.72;100.00;100710.75;4187676;28;20240;-73
2023/12/15 01:03:21;;;;;;;17.03;8.33;;;;;;;-0.75;100.00;100724.16;4203488;28;22142;-75
2023/12/15 01:05:50;;;;;;;22.13;9.30;;;;;;;-0.88;100.00;100738.00;4194689;28;23154;-74
2023/12/15 01:08:17;;;;;;;25.93;12.27;;;;;;;-0.87;100.00;100737.06;4183765;28;20242;-71
2023/12/15 01:10:43;;;;;;;36.70;15.93;;;;;;;-0.90;100.00;100733.69;4180699;28;20310;-72
2023/12/15 01:13:10;;;;;;;35.10;15.10;;;;;;;-0.91;100.00;100746.13;4188496;28;22902;-74
2023/12/15 01:15:37;;;;;;;30.77;12.60;;;;;;;-1.01;100.00;100739.47;4186377;28;20598;-74
2023/12/15 01:18:03;;;;;;;21.87;10.47;;;;;;;-1.10;100.00;100737.19;4193955;28;20559;-76
2023/12/15 01:20:30;;;;;;;17.23;9.00;;;;;;;-0.91;100.00;100739.91;4185305;28;20281;-74
2023/12/15 01:22:57;;;;;;;23.53;10.20;;;;;;;-0.95;100.00;100739.19;4187290;28;20829;-72
2023/12/15 01:25:24;;;;;;;20.20;8.70;;;;;;;-1.03;100.00;100734.22;4190361;28;20240;-75
2023/12/15 01:27:51;;;;;;;24.77;9.30;;;;;;;-1.09;100.00;100733.59;4176625;28;20539;-75
2023/12/15 01:30:18;;;;;;;19.87;8.97;;;;;;;-0.95;100.00;100749.81;4187449;28;20303;-73
2023/12/15 01:32:44;;;;;;;21.93;10.00;;;;;;;-1.01;100.00;100742.13;4187955;28;20242;-73
2023/12/15 01:35:11;;;;;;;23.10;9.83;;;;;;;-0.93;100.00;100750.63;4188144;28;20358;-72
2023/12/15 01:37:38;;;;;;;23.70;9.90;;;;;;;-0.92;100.00;100764.75;4179589;28;22548;-74
2023/12/15 01:40:07;;;;;;;22.10;9.50;;;;;;;-0.86;100.00;100767.16;4183318;28;20855;-75
2023/12/15 01:42:34;;;;;;;22.57;9.27;;;;;;;-0.86;100.00;100775.13;4179604;28;21576;-71
2023/12/15 01:45:01;;;;;;;21.67;9.37;;;;;;;-0.90;100.00;100782.38;4187095;28;21288;-70
2023/12/15 01:47:28;;;;;;;24.93;10.13;;;;;;;-0.88;100.00;100782.31;4199288;28;20337;-70
2023/12/15 01:49:55;;;;;;;26.90;9.80;;;;;;;-0.92;100.00;100786.03;4190246;28;20724;-70
2023/12/15 01:52:22;;;;;;;25.40;10.33;;;;;;;-0.89;100.00;100777.94;4180783;28;22871;-75
2023/12/15 01:54:48;;;;;;;20.57;9.33;;;;;;;-0.75;100.00;100777.31;4185100;28;20382;-73
2023/12/15 01:57:15;;;;;;;26.70;9.60;;;;;;;-0.73;100.00;100775.47;4182260;28;20241;-72
2023/12/15 01:59:44;;;;;;;20.80;9.10;;;;;;;-0.82;100.00;100787.38;4189403;28;22462;-73
2023/12/15 02:02:10;;;;;;;26.10;10.50;;;;;;;-0.79;100.00;100795.19;4185265;28;20241;-70
2023/12/15 02:04:38;;;;;;;26.47;11.13;;;;;;;-0.75;100.00;100793.28;4186927;28;20233;-69
2023/12/15 02:07:05;;;;;;;31.97;14.00;;;;;;;-0.74;100.00;100795.00;4175077;28;20238;-73
2023/12/15 02:09:31;;;;;;;33.17;14.50;;;;;;;-0.74;100.00;100800.31;4188078;28;26350;-70
2023/12/15 02:11:58;;;;;;;29.37;12.90;;;;;;;-0.84;100.00;100811.38;4186914;28;20241;-70
2023/12/15 02:14:25;;;;;;;25.33;11.23;;;;;;;-0.77;100.00;100805.78;4186855;28;21114;-70
2023/12/15 02:16:52;;;;;;;21.77;10.40;;;;;;;-0.78;100.00;100815.53;4181663;28;23062;-69
2023/12/15 02:19:19;;;;;;;23.20;10.37;;;;;;;-0.75;100.00;100822.50;4187850;28;20450;-70
2023/12/15 02:21:46;;;;;;;26.00;10.53;;;;;;;-0.75;100.00;100820.75;4184503;28;20234;-72
2023/12/15 02:24:12;;;;;;;22.00;10.37;;;;;;;-0.78;100.00;100833.28;4190928;28;20229;-70
2023/12/15 02:26:39;;;;;;;21.13;9.43;;;;;;;-0.62;100.00;100831.72;4182510;28;20644;-71
2023/12/15 02:29:05;;;;;;;22.63;9.20;;;;;;;-0.65;100.00;100831.84;4182898;28;20237;-69
2023/12/15 02:31:32;;;;;;;21.30;9.23;;;;;;;-0.73;100.00;100825.97;4184063;28;25986;-72
2023/12/15 02:33:59;;;;;;;19.43;9.00;;;;;;;-0.70;100.00;100828.53;4184396;28;20243;-70
2023/12/15 02:36:25;;;;;;;22.50;9.83;;;;;;;-0.69;100.00;100832.91;4165960;28;20240;-72
2023/12/15 02:38:52;;;;;;;23.80;11.07;;;;;;;-0.64;100.00;100837.09;4183044;28;20776;-74
2023/12/15 02:41:21;;;;;;;24.00;10.53;;;;;;;-0.68;100.00;100837.31;4194049;28;20241;-72
2023/12/15 02:43:47;;;;;;;26.33;10.27;;;;;;;-0.64;100.00;100831.75;4183229;28;20244;-70
2023/12/15 02:46:14;;;;;;;27.83;12.07;;;;;;;-0.51;100.00;100840.09;4198492;28;20234;-70
2023/12/15 02:48:41;;;;;;;22.33;9.23;;;;;;;-0.81;100.00;100839.63;4185961;28;21619;-71
2023/12/15 02:51:10;;;;;;;22.07;10.07;;;;;;;-1.06;100.00;100843.28;4196340;28;20237;-72
2023/12/15 02:53:37;;;;;;;23.47;9.87;;;;;;;-0.82;100.00;100845.84;4173024;28;20328;-70
2023/12/15 02:56:04;;;;;;;33.37;13.60;;;;;;;-0.98;100.00;100846.50;4177639;28;20233;-70
2023/12/15 02:58:31;;;;;;;46.13;15.30;;;;;;;-1.12;100.00;100839.06;4202587;28;21471;-72
2023/12/15 03:00:58;;;;;;;105.03;26.77;;;;;;;-1.19;100.00;100845.56;4192419;28;21461;-71
2023/12/15 03:03:24;;;;;;;83.47;23.63;;;;;;;-1.15;100.00;100846.31;4186047;28;20296;-73
2023/12/15 03:05:51;;;;;;;36.40;12.97;;;;;;;-0.75;100.00;100851.75;4185080;28;20314;-72
2023/12/15 03:08:18;;;;;;;41.47;15.30;;;;;;;-0.74;100.00;100874.75;4192791;28;20308;-71
2023/12/15 03:10:44;;;;;;;59.77;20.40;;;;;;;-0.78;100.00;100894.44;4186586;28;21609;-74
2023/12/15 03:13:11;;;;;;;30.43;13.27;;;;;;;-0.75;100.00;100903.16;4179966;28;20288;-71
2023/12/15 03:15:37;;;;;;;29.37;13.30;;;;;;;-0.65;100.00;100891.22;4184956;28;20308;-70
2023/12/15 03:18:04;;;;;;;24.93;11.40;;;;;;;-0.87;100.00;100890.38;4186616;28;20234;-77
2023/12/15 03:20:31;;;;;;;21.93;10.60;;;;;;;-0.74;100.00;100904.88;4190158;28;20244;-70
2023/12/15 03:23:00;;;;;;;26.53;10.40;;;;;;;-0.72;100.00;100908.34;4196811;28;20229;-70
2023/12/15 03:25:26;;;;;;;22.87;10.80;;;;;;;-0.65;100.00;100898.31;4184345;28;20647;-73
2023/12/15 03:27:53;;;;;;;29.57;11.13;;;;;;;-0.84;100.00;100920.34;4185960;28;20229;-71
2023/12/15 03:30:20;;;;;;;19.90;10.00;;;;;;;-0.75;100.00;100894.28;4190863;28;22089;-71
2023/12/15 03:32:46;;;;;;;20.37;10.20;;;;;;;-0.64;100.00;100929.28;4181542;28;20782;-73
2023/12/15 03:35:13;;;;;;;23.97;10.03;;;;;;;-0.80;100.00;100913.13;4186805;28;23300;-71
2023/12/15 03:37:40;;;;;;;22.57;10.07;;;;;;;-0.76;100.00;100938.63;4188786;28;20304;-69
2023/12/15 03:40:07;;;;;;;21.73;9.27;;;;;;;-0.73;100.00;100932.31;4187580;28;20233;-76
2023/12/15 03:42:34;;;;;;;22.77;10.60;;;;;;;-0.81;100.00;100928.19;4189311;28;20862;-70
2023/12/15 03:45:01;;;;;;;20.50;9.60;;;;;;;-0.82;100.00;100929.09;4187527;28;23318;-71
2023/12/15 03:47:27;;;;;;;20.93;9.80;;;;;;;-0.76;100.00;100940.44;4188715;28;20238;-72
2023/12/15 03:49:54;;;;;;;22.47;9.90;;;;;;;-0.78;100.00;100936.97;4187309;28;20245;-72
2023/12/15 03:52:21;;;;;;;25.00;10.97;;;;;;;-0.73;100.00;100937.63;4183896;28;20250;-72
2023/12/15 03:54:48;;;;;;;22.30;9.43;;;;;;;-0.66;100.00;100941.78;4181733;28;20605;-71
2023/12/15 03:57:14;;;;;;;22.10;10.93;;;;;;;-0.78;100.00;100942.28;4188080;28;20345;-73
2023/12/15 03:59:41;;;;;;;22.23;9.93;;;;;;;-0.77;100.00;100944.03;4199665;28;20229;-73
2023/12/15 04:02:12;;;;;;;23.67;11.07;;;;;;;-0.63;100.00;100957.63;4171325;28;20234;-73
2023/12/15 04:04:38;;;;;;;21.27;9.93;;;;;;;-0.68;100.00;100960.47;4189830;28;20243;-72
2023/12/15 04:07:05;;;;;;;22.90;9.97;;;;;;;-0.64;100.00;100967.38;4194501;28;20235;-71
2023/12/15 04:09:32;;;;;;;22.27;10.40;;;;;;;-0.71;100.00;100965.88;4186004;28;20234;-70
2023/12/15 04:11:58;;;;;;;22.73;9.80;;;;;;;-0.80;100.00;100972.44;4192955;28;20241;-74
2023/12/15 04:14:25;;;;;;;25.07;10.53;;;;;;;-0.77;100.00;100971.44;4191334;28;21538;-74
2023/12/15 04:16:52;;;;;;;22.67;10.03;;;;;;;-0.81;100.00;100965.41;4194838;28;20312;-75
2023/12/15 04:19:19;;;;;;;22.53;10.53;;;;;;;-0.76;100.00;100967.03;4182151;28;20371;-71
2023/12/15 04:21:46;;;;;;;24.47;10.67;;;;;;;-0.76;100.00;100969.69;4189491;28;20238;-70
2023/12/15 04:24:12;;;;;;;29.13;11.70;;;;;;;-0.82;100.00;100984.06;4183162;28;20349;-72
2023/12/15 04:26:39;;;;;;;35.67;13.07;;;;;;;-0.94;100.00;100980.09;4198331;28;22322;-72
2023/12/15 04:29:22;;;;;;;31.83;13.00;;;;;;;-0.70;100.00;100982.72;4193328;28;20281;-76
2023/12/15 04:31:48;;;;;;;28.33;12.33;;;;;;;-0.96;100.00;100982.84;4181920;28;20363;-72
2023/12/15 04:34:15;;;;;;;27.87;12.57;;;;;;;-1.09;100.00;100978.03;4190727;28;21293;-70
2023/12/15 04:36:42;;;;;;;29.30;11.60;;;;;;;-1.02;100.00;100993.69;4193650;28;20237;-73
2023/12/15 04:39:09;;;;;;;28.67;11.87;;;;;;;-0.96;100.00;101001.44;4174515;28;20235;-74
2023/12/15 04:41:35;;;;;;;23.43;11.43;;;;;;;-0.90;100.00;101004.78;4186104;28;20237;-70
2023/12/15 04:44:02;;;;;;;28.03;12.53;;;;;;;-0.95;100.00;101010.25;4195492;28;20244;-70
2023/12/15 04:46:30;;;;;;;29.87;12.50;;;;;;;-1.14;100.00;101004.78;4189262;28;20240;-72
2023/12/15 04:49:01;;;;;;;25.83;10.63;;;;;;;-1.13;100.00;101004.72;4179995;28;20234;-74
2023/12/15 04:51:28;;;;;;;25.57;10.90;;;;;;;-1.18;100.00;101003.19;4190758;28;20512;-70
2023/12/15 04:53:54;;;;;;;26.57;12.20;;;;;;;-1.10;100.00;101005.53;4195930;28;21603;-70
2023/12/15 04:56:21;;;;;;;30.10;12.47;;;;;;;-1.25;100.00;100993.72;4187928;28;20237;-72
2023/12/15 04:58:48;;;;;;;24.50;11.20;;;;;;;-1.20;100.00;101013.84;4210644;28;20312;-73
2023/12/15 05:01:15;;;;;;;27.73;11.47;;;;;;;-1.21;100.00;101013.91;4193846;28;20316;-70
2023/12/15 05:03:43;;;;;;;27.53;11.93;;;;;;;-1.25;100.00;101020.28;4194575;28;22915;-70
2023/12/15 05:06:19;;;;;;;26.57;11.43;;;;;;;-1.20;100.00;101023.63;4192051;28;20230;-73
2023/12/15 05:08:47;;;;;;;24.67;11.00;;;;;;;-1.18;100.00;101024.44;4184316;28;20525;-72
2023/12/15 05:11:14;;;;;;;29.43;12.57;;;;;;;-1.20;100.00;101026.28;4190084;28;20288;-72
2023/12/15 05:13:41;;;;;;;30.53;11.40;;;;;;;-1.23;100.00;101027.25;4193932;28;23644;-75
2023/12/15 05:16:09;;;;;;;26.20;11.60;;;;;;;-1.22;100.00;101033.44;4189390;28;20233;-74
2023/12/15 05:18:36;;;;;;;27.80;11.67;;;;;;;-1.23;100.00;101031.69;4181461;28;20536;-70
2023/12/15 05:21:04;;;;;;;29.10;12.63;;;;;;;-1.22;100.00;101041.41;4199057;28;20875;-71
2023/12/15 05:23:30;;;;;;;30.73;11.17;;;;;;;-1.25;100.00;101042.38;4196985;28;21077;-76
2023/12/15 05:25:57;;;;;;;30.67;12.07;;;;;;;-1.26;100.00;101045.97;4192719;28;20403;-72
2023/12/15 05:28:24;;;;;;;30.50;11.80;;;;;;;-1.24;100.00;101045.91;4187447;28;20237;-74
2023/12/15 05:30:50;;;;;;;27.57;11.53;;;;;;;-1.22;100.00;101038.75;4190812;28;20234;-73
2023/12/15 05:33:17;;;;;;;27.03;11.93;;;;;;;-1.16;100.00;101041.16;4191455;28;22595;-69
2023/12/15 05:35:44;;;;;;;24.13;11.13;;;;;;;-1.08;100.00;101049.72;4184915;28;21117;-73
2023/12/15 05:38:11;;;;;;;25.43;11.37;;;;;;;-1.04;100.00;101051.34;4184872;28;20245;-74
2023/12/15 05:40:37;;;;;;;24.33;10.40;;;;;;;-1.15;100.00;101051.75;4190642;28;20306;-71
2023/12/15 05:43:04;;;;;;;24.83;11.47;;;;;;;-1.19;100.00;101054.59;4203088;28;20557;-73
2023/12/15 05:45:31;;;;;;;26.17;11.43;;;;;;;-1.19;100.00;101051.94;4187174;28;20554;-72
2023/12/15 05:47:57;;;;;;;24.67;11.00;;;;;;;-1.15;100.00;101054.41;4185876;28;25308;-69
2023/12/15 05:50:24;;;;;;;31.10;12.23;;;;;;;-1.16;100.00;101058.00;4196475;28;20744;-78
2023/12/15 05:52:52;;;;;;;26.00;11.17;;;;;;;-1.07;100.00;101056.78;4185488;28;20411;-71
2023/12/15 05:55:19;;;;;;;27.17;12.50;;;;;;;-1.09;100.00;101060.41;4188561;28;20236;-74
2023/12/15 05:57:46;;;;;;;33.67;13.00;;;;;;;-1.06;100.00;101060.31;4184357;28;22993;-75
2023/12/15 06:00:13;;;;;;;31.60;13.27;;;;;;;-1.13;100.00;101071.13;4186508;28;20301;-71
2023/12/15 06:02:40;;;;;;;34.33;12.57;;;;;;;-1.12;100.00;101070.22;4203961;28;23809;-74
2023/12/15 06:05:07;;;;;;;32.77;13.57;;;;;;;-1.04;100.00;101069.06;4194564;28;20240;-71
2023/12/15 06:07:34;;;;;;;34.60;13.50;;;;;;;-1.10;100.00;101064.00;4183140;28;20245;-70
2023/12/15 06:10:01;;;;;;;32.40;13.10;;;;;;;-1.02;100.00;101076.06;4188956;28;20229;-73
2023/12/15 06:12:28;;;;;;;32.30;13.17;;;;;;;-1.02;100.00;101083.19;4191123;28;20245;-72
2023/12/15 06:14:54;;;;;;;29.53;13.47;;;;;;;-1.05;100.00;101078.84;4184649;28;21635;-69
2023/12/15 06:17:21;;;;;;;28.37;13.07;;;;;;;-1.10;100.00;101080.81;4183889;28;20249;-70
2023/12/15 06:19:48;;;;;;;30.77;12.90;;;;;;;-1.09;100.00;101084.31;4205719;28;20317;-72
2023/12/15 06:22:14;;;;;;;34.17;14.03;;;;;;;-1.05;100.00;101086.81;4205953;28;20234;-72
2023/12/15 06:24:41;;;;;;;25.43;12.33;;;;;;;-0.93;100.00;101096.13;4181628;28;21908;-77
2023/12/15 06:27:08;;;;;;;31.70;13.67;;;;;;;-1.00;100.00;101091.97;4188739;28;22235;-71
2023/12/15 06:29:35;;;;;;;28.77;12.57;;;;;;;-1.01;100.00;101100.84;4218661;28;21753;-70
2023/12/15 06:32:02;;;;;;;31.93;13.20;;;;;;;-1.03;100.00;101106.25;4201630;28;20230;-69
2023/12/15 06:34:29;;;;;;;34.60;14.33;;;;;;;-1.01;100.00;101114.16;4191056;28;20874;-70
2023/12/15 06:36:55;;;;;;;35.30;14.63;;;;;;;-0.95;100.00;101111.25;4209929;28;20301;-72
2023/12/15 06:39:22;;;;;;;35.17;14.80;;;;;;;-0.99;100.00;101107.00;4221345;28;21367;-74
2023/12/15 06:41:49;;;;;;;37.50;15.10;;;;;;;-0.94;100.00;101112.13;4193717;28;20241;-69
2023/12/15 06:44:16;;;;;;;38.97;15.17;;;;;;;-0.89;100.00;101121.66;4184286;28;20329;-72
2023/12/15 06:46:44;;;;;;;39.37;15.87;;;;;;;-0.92;100.00;101119.13;4198599;28;20353;-70
2023/12/15 06:49:10;;;;;;;40.70;16.10;;;;;;;-0.92;100.00;101121.78;4185664;28;20287;-71
2023/12/15 06:51:38;;;;;;;36.10;16.27;;;;;;;-0.91;100.00;101120.88;4187107;28;20293;-70
2023/12/15 06:54:04;;;;;;;38.17;16.27;;;;;;;-0.76;100.00;101129.19;4185674;28;20608;-73
2023/12/15 06:56:31;;;;;;;37.43;14.77;;;;;;;-0.79;100.00;101135.47;4197602;28;21658;-70
2023/12/15 06:58:58;;;;;;;35.23;14.67;;;;;;;-0.76;100.00;101139.81;4206063;28;21337;-73
2023/12/15 07:01:24;;;;;;;35.40;14.77;;;;;;;-0.67;100.00;101132.38;4181503;28;20234;-72
2023/12/15 07:03:51;;;;;;;34.67;14.40;;;;;;;-0.66;100.00;101133.22;4189611;28;20238;-72
2023/12/15 07:06:18;;;;;;;36.83;14.20;;;;;;;-0.76;100.00;101145.13;4182704;28;20314;-74
2023/12/15 07:08:48;;;;;;;36.20;15.53;;;;;;;-0.79;100.00;101146.09;4184614;28;21707;-71
2023/12/15 07:11:15;;;;;;;36.13;15.03;;;;;;;-0.83;100.00;101152.47;4187168;28;20238;-70
2023/12/15 07:13:42;;;;;;;35.93;15.13;;;;;;;-0.84;100.00;101156.03;4183794;28;21493;-71
2023/12/15 07:16:10;;;;;;;34.10;14.63;;;;;;;-0.66;100.00;101152.72;4198602;28;20242;-74
2023/12/15 07:18:37;;;;;;;33.23;15.33;;;;;;;-0.78;100.00;101161.13;4192829;28;21774;-72
2023/12/15 07:21:03;;;;;;;35.03;15.10;;;;;;;-0.87;100.00;101161.50;4181517;28;21751;-73
2023/12/15 07:23:30;;;;;;;36.57;15.50;;;;;;;-0.89;100.00;101158.88;4180452;28;22764;-72
2023/12/15 07:25:57;;;;;;;39.23;15.47;;;;;;;-0.91;100.00;101168.72;4187750;28;20304;-72
2023/12/15 07:28:23;;;;;;;37.20;14.90;;;;;;;-0.90;100.00;101170.41;4181449;28;20237;-72
2023/12/15 07:30:50;;;;;;;36.87;15.07;;;;;;;-0.85;100.00;101168.47;4182023;28;20236;-73
2023/12/15 07:33:17;;;;;;;37.30;14.60;;;;;;;-0.81;100.00;101172.75;4184357;28;20608;-71
2023/12/15 07:35:44;;;;;;;36.43;15.47;;;;;;;-0.80;100.00;101177.16;4181340;28;20263;-73
2023/12/15 07:38:10;;;;;;;32.80;14.80;;;;;;;-0.65;100.00;101183.69;4192490;28;20238;-73
2023/12/15 07:40:37;;;;;;;37.43;16.23;;;;;;;-0.63;100.00;101180.97;4190478;28;20247;-75
2023/12/15 07:43:04;;;;;;;33.93;13.93;;;;;;;-0.60;100.00;101180.84;4183923;28;20232;-72
2023/12/15 07:45:30;;;;;;;34.70;14.60;;;;;;;-0.65;100.00;101174.84;4193055;28;21768;-70
2023/12/15 07:47:57;;;;;;;36.87;15.00;;;;;;;-0.62;100.00;101181.84;4201631;28;20240;-70
2023/12/15 07:50:24;;;;;;;35.63;14.57;;;;;;;-0.62;100.00;101187.16;4189376;28;21232;-69
2023/12/15 07:52:53;;;;;;;33.80;15.13;;;;;;;-0.60;100.00;101191.47;4186635;28;21840;-73
2023/12/15 07:55:20;;;;;;;34.73;14.57;;;;;;;-0.57;100.00;101194.03;4194040;28;22680;-69
2023/12/15 07:57:46;;;;;;;36.53;14.27;;;;;;;-0.53;100.00;101205.44;4188736;28;20300;-70
2023/12/15 08:00:13;;;;;;;37.37;15.33;;;;;;;-0.58;100.00;101199.44;4200612;28;20644;-71
2023/12/15 08:02:41;;;;;;;36.53;14.43;;;;;;;-0.55;100.00;101201.94;4183554;28;22719;-72
2023/12/15 08:05:09;;;;;;;37.93;16.33;;;;;;;-0.59;100.00;101203.00;4195311;28;20237;-73
2023/12/15 08:07:36;;;;;;;31.97;14.77;;;;;;;-0.59;100.00;101218.97;4190802;28;20239;-71
2023/12/15 08:10:03;;;;;;;35.23;14.73;;;;;;;-0.57;100.00;101215.31;4183913;28;21591;-68
2023/12/15 08:12:30;;;;;;;40.27;16.10;;;;;;;-0.59;100.00;101214.50;4203396;28;20304;-71
2023/12/15 08:14:56;;;;;;;34.43;15.47;;;;;;;-0.55;100.00;101224.13;4193927;28;25560;-72
2023/12/15 08:17:23;;;;;;;39.80;16.30;;;;;;;-0.48;100.00;101227.38;4186624;28;20248;-72
2023/12/15 08:19:50;;;;;;;38.53;16.10;;;;;;;-0.53;100.00;101226.72;4183070;28;20243;-74
2023/12/15 08:22:18;;;;;;;37.23;15.57;;;;;;;-0.61;100.00;101224.34;4192384;28;20240;-74
2023/12/15 08:24:44;;;;;;;38.67;15.73;;;;;;;-0.66;100.00;101231.59;4184519;28;20244;-70
2023/12/15 08:27:12;;;;;;;41.60;15.30;;;;;;;-0.46;100.00;101230.03;4189802;28;25252;-68
2023/12/15 08:29:41;;;;;;;41.30;17.13;;;;;;;-0.61;100.00;101232.31;4186395;28;20394;-70
2023/12/15 08:32:09;;;;;;;40.10;18.27;;;;;;;-0.65;100.00;101230.69;4195237;28;20304;-69
2023/12/15 08:34:35;;;;;;;44.67;17.67;;;;;;;-0.67;100.00;101241.38;4189506;28;20323;-72
2023/12/15 08:37:03;;;;;;;47.00;18.63;;;;;;;-0.72;100.00;101242.47;4188929;28;20228;-70
2023/12/15 08:39:29;;;;;;;53.83;20.13;;;;;;;-0.62;100.00;101254.50;4186561;28;20244;-71
2023/12/15 08:41:56;;;;;;;57.87;23.40;;;;;;;-0.58;100.00;101248.16;4189202;28;20862;-71
2023/12/15 08:44:23;;;;;;;52.43;21.30;;;;;;;-0.64;100.00;101243.91;4189133;28;20233;-71
2023/12/15 08:46:59;;;;;;;56.53;22.70;;;;;;;-0.69;100.00;101242.38;4188246;28;20250;-71
2023/12/15 08:49:27;;;;;;;51.37;22.27;;;;;;;-0.69;100.00;101240.56;4186365;28;23016;-68
2023/12/15 08:51:54;;;;;;;55.13;22.23;;;;;;;-0.44;100.00;101239.66;4221628;28;20377;-70
2023/12/15 08:54:21;;;;;;;60.20;22.67;;;;;;;-0.15;100.00;101242.16;4177837;28;21270;-68
2023/12/15 08:56:47;;;;;;;58.87;21.43;;;;;;;0.08;100.00;101243.94;4199270;28;20308;-72
2023/12/15 08:59:14;;;;;;;56.03;22.23;;;;;;;0.15;100.00;101253.41;4193755;28;20465;-74
2023/12/15 09:01:41;;;;;;;58.50;22.60;;;;;;;0.11;100.00;101265.97;4190903;28;20673;-69
2023/12/15 09:04:09;;;;;;;56.43;23.30;;;;;;;0.22;100.00;101278.00;4199195;28;20237;-71
2023/12/15 09:06:35;;;;;;;55.10;22.67;;;;;;;0.06;100.00;101273.28;4200256;28;21638;-68
2023/12/15 09:09:10;;;;;;;53.03;22.23;;;;;;;-0.05;100.00;101289.66;4196341;28;20410;-71
2023/12/15 09:11:38;;;;;;;52.57;22.60;;;;;;;-0.06;100.00;101284.38;4197924;28;20242;-72
2023/12/15 09:14:06;;;;;;;57.40;23.43;;;;;;;-0.17;100.00;101285.66;4195979;28;22097;-70
2023/12/15 09:16:32;;;;;;;53.30;22.97;;;;;;;-0.10;100.00;101288.94;4195478;28;20279;-73
2023/12/15 09:18:59;;;;;;;51.30;22.80;;;;;;;-0.01;100.00;101296.59;4209407;28;20257;-73
2023/12/15 09:21:26;;;;;;;50.13;22.67;;;;;;;-0.19;100.00;101300.81;4197210;28;25636;-71
2023/12/15 09:23:56;;;;;;;54.47;22.63;;;;;;;-0.12;100.00;101308.56;4198361;28;20343;-69
2023/12/15 09:26:24;;;;;;;63.30;23.10;;;;;;;-0.12;100.00;101304.13;4177016;28;20244;-70
2023/12/15 09:28:51;;;;;;;52.23;22.37;;;;;;;0.02;100.00;101311.56;4189127;28;20544;-68
2023/12/15 09:31:18;;;;;;;50.47;21.77;;;;;;;-0.18;100.00;101321.19;4205408;28;20240;-70
2023/12/15 09:33:44;;;;;;;52.73;22.70;;;;;;;-0.29;100.00;101310.06;4194212;28;22921;-71
2023/12/15 09:36:12;;;;;;;52.53;23.13;;;;;;;-0.32;100.00;101311.03;4200166;28;20990;-69
2023/12/15 09:38:38;;;;;;;53.77;22.30;;;;;;;-0.12;100.00;101314.78;4203098;28;20242;-72
2023/12/15 09:41:06;;;;;;;44.87;21.00;;;;;;;0.07;100.00;101309.63;4211552;28;20245;-73
2023/12/15 09:43:32;;;;;;;51.33;21.40;;;;;;;0.01;100.00;101312.50;4199526;28;21671;-72
2023/12/15 09:46:01;;;;;;;52.03;20.83;;;;;;;-0.08;100.00;101313.72;4184508;28;20246;-71
2023/12/15 09:48:28;;;;;;;57.43;24.37;;;;;;;0.02;100.00;101308.06;4247228;28;20226;-74
2023/12/15 09:50:59;;;;;;;54.60;23.00;;;;;;;0.17;100.00;101311.91;4212760;28;22481;-71
2023/12/15 09:53:29;;;;;;;59.83;23.60;;;;;;;0.10;100.00;101311.31;4176631;28;23951;-72
2023/12/15 09:55:56;;;;;;;59.60;23.93;;;;;;;0.22;100.00;101307.31;4193763;28;21628;-72
2023/12/15 09:58:23;;;;;;;57.70;24.23;;;;;;;0.14;100.00;101300.47;4218529;28;20237;-71
2023/12/15 10:00:52;;;;;;;57.97;23.63;;;;;;;0.02;100.00;101308.91;4190930;28;20240;-73
2023/12/15 10:03:19;;;;;;;58.73;24.50;;;;;;;0.07;100.00;101301.66;4202791;28;20305;-68
2023/12/15 10:05:46;;;;;;;56.90;24.23;;;;;;;0.12;100.00;101298.78;4192333;28;20592;-76
2023/12/15 10:08:13;;;;;;;62.53;24.73;;;;;;;0.17;100.00;101312.81;4186829;28;20278;-75
2023/12/15 10:10:41;;;;;;;56.20;24.60;;;;;;;0.35;100.00;101315.66;4200518;28;22841;-69
2023/12/15 10:13:09;;;;;;;59.57;25.47;;;;;;;0.31;100.00;101330.91;4192644;28;21890;-67
2023/12/15 10:15:35;;;;;;;63.17;24.83;;;;;;;0.14;100.00;101311.13;4183342;28;21756;-70
2023/12/15 10:18:03;;;;;;;60.27;24.77;;;;;;;0.23;100.00;101319.66;4199277;28;20240;-68
2023/12/15 10:20:30;;;;;;;63.90;25.80;;;;;;;0.42;100.00;101306.50;4197007;28;20238;-69
2023/12/15 10:23:02;;;;;;;60.93;24.40;;;;;;;0.36;100.00;101296.09;4185316;28;21418;-69
2023/12/15 10:25:29;;;;;;;57.57;24.70;;;;;;;0.36;100.00;101320.94;4189514;28;20627;-70
2023/12/15 10:27:55;;;;;;;63.33;24.03;;;;;;;0.54;100.00;101332.69;4194103;28;21498;-69
2023/12/15 10:30:22;;;;;;;51.20;21.97;;;;;;;0.76;100.00;101330.00;4183547;28;20226;-68
2023/12/15 10:32:49;;;;;;;64.37;25.43;;;;;;;0.57;100.00;101329.00;4180152;28;20321;-73
2023/12/15 10:35:17;;;;;;;54.17;24.33;;;;;;;0.35;100.00;101321.88;4188405;28;20544;-71
2023/12/15 10:37:45;;;;;;;56.70;24.13;;;;;;;0.29;100.00;101330.09;4187669;28;20604;-72
2023/12/15 10:40:13;;;;;;;59.37;26.50;;;;;;;0.24;100.00;101332.06;4183279;28;20237;-72
2023/12/15 10:42:41;;;;;;;64.00;25.43;;;;;;;0.45;100.00;101320.56;4197530;28;20299;-71
2023/12/15 10:45:09;;;;;;;60.60;26.40;;;;;;;0.40;100.00;101324.38;4191742;28;20870;-72
2023/12/15 10:47:37;;;;;;;61.37;25.27;;;;;;;0.42;100.00;101335.81;4177284;28;20240;-71
2023/12/15 10:50:07;;;;;;;65.80;25.20;;;;;;;0.60;100.00;101331.56;4183655;28;20238;-75
2023/12/15 10:52:37;;;;;;;64.40;26.47;;;;;;;0.66;100.00;101341.09;4189153;28;20251;-73
2023/12/15 10:55:06;;;;;;;62.67;24.73;;;;;;;0.67;100.00;101334.84;4186283;28;21127;-69
2023/12/15 10:57:33;;;;;;;63.17;25.20;;;;;;;0.58;100.00;101334.28;4190678;28;20232;-76
2023/12/15 11:00:03;;;;;;;71.80;29.70;;;;;;;0.60;100.00;101326.25;4191802;28;20324;-76
2023/12/15 11:02:31;;;;;;;59.63;24.87;;;;;;;0.75;100.00;101316.75;4189295;28;20667;-72
2023/12/15 11:04:59;;;;;;;53.90;23.70;;;;;;;0.58;100.00;101306.78;4181952;28;20300;-70